Time;durP1;ratioP1;P1;durP2;ratioP2;P2;SDS_P1;SDS_P2;PMS_P1;PMS_P2;Temp;Humidity;BMP_temperature;BMP_pressure;BME280_temperature;BME280_humidity;BME280_pressure;Samples;Min_cycle;Max_cycle;Signal;HPM_P1;HPM_P2
2021/08/06 00:00:38;;;;;;;1.20;1.03;;;18.00;98.00;;;;;;5090640;28;20463;-73
2021/08/06 00:03:05;;;;;;;1.20;1.07;;;18.00;98.00;;;;;;5090835;28;20507;-73
2021/08/06 00:05:34;;;;;;;1.40;1.20;;;17.90;98.00;;;;;;5091113;28;20605;-73
2021/08/06 00:08:00;;;;;;;1.20;1.00;;;17.80;98.00;;;;;;5072799;28;20456;-73
2021/08/06 00:10:28;;;;;;;1.20;1.00;;;17.70;98.00;;;;;;5090741;28;20533;-73
2021/08/06 00:12:54;;;;;;;1.20;1.00;;;17.50;98.00;;;;;;5093611;28;20512;-73
2021/08/06 00:15:22;;;;;;;1.20;1.00;;;17.30;98.00;;;;;;5094428;28;20487;-73
2021/08/06 00:17:48;;;;;;;1.20;1.00;;;17.20;98.00;;;;;;5094662;28;20546;-73
2021/08/06 00:20:16;;;;;;;1.20;1.00;;;17.30;98.00;;;;;;5094550;28;20510;-73
2021/08/06 00:22:45;;;;;;;1.40;1.20;;;17.20;98.00;;;;;;5094551;28;20464;-73
2021/08/06 00:25:13;;;;;;;1.20;1.10;;;17.20;98.00;;;;;;5094451;28;20521;-73
2021/08/06 00:27:40;;;;;;;1.30;1.10;;;17.20;98.00;;;;;;5076519;28;20509;-73
2021/08/06 00:30:08;;;;;;;1.20;1.00;;;17.20;98.00;;;;;;5094124;28;20642;-73
2021/08/06 00:32:35;;;;;;;1.20;1.10;;;17.10;98.00;;;;;;5094297;28;20512;-73
2021/08/06 00:35:02;;;;;;;1.20;1.07;;;17.00;98.00;;;;;;5093897;28;20526;-73
2021/08/06 00:37:29;;;;;;;1.20;1.00;;;17.00;98.00;;;;;;5094332;28;20505;-73
2021/08/06 00:39:57;;;;;;;1.20;1.10;;;16.80;98.00;;;;;;5094149;28;21021;-73
2021/08/06 00:42:24;;;;;;;1.20;1.10;;;16.60;98.00;;;;;;5094083;28;21003;-73
2021/08/06 00:44:51;;;;;;;1.90;1.40;;;16.50;98.00;;;;;;5094110;28;20452;-73
2021/08/06 00:47:18;;;;;;;1.20;1.10;;;16.60;98.00;;;;;;5094085;28;21011;-73
2021/08/06 00:49:45;;;;;;;1.20;1.00;;;16.60;98.00;;;;;;5094029;28;20513;-73
2021/08/06 00:52:14;;;;;;;1.20;1.10;;;16.50;98.00;;;;;;5094156;28;20505;-73
2021/08/06 00:54:41;;;;;;;1.20;1.00;;;16.50;98.00;;;;;;5093836;28;20492;-73
2021/08/06 00:57:12;;;;;;;1.30;1.10;;;16.50;98.00;;;;;;5093885;28;20460;-73
2021/08/06 00:59:39;;;;;;;1.20;1.00;;;16.50;98.00;;;;;;5093902;28;20490;-73
2021/08/06 01:02:12;;;;;;;1.20;1.00;;;16.40;98.00;;;;;;5094051;28;20532;-73
2021/08/06 01:04:44;;;;;;;1.23;1.03;;;16.60;98.00;;;;;;5076554;28;20456;-73
2021/08/06 01:07:18;;;;;;;1.20;1.00;;;16.60;98.00;;;;;;5093914;28;20517;-73
2021/08/06 01:09:49;;;;;;;1.20;1.00;;;16.80;98.00;;;;;;5093605;28;20480;-73
2021/08/06 01:12:27;;;;;;;1.20;1.10;;;16.70;98.00;;;;;;5075672;28;20506;-73
2021/08/06 01:14:56;;;;;;;1.20;1.10;;;16.70;98.00;;;;;;5093507;28;20497;-73
2021/08/06 01:17:26;;;;;;;1.20;1.00;;;16.60;98.00;;;;;;5093611;28;20546;-73
2021/08/06 01:19:59;;;;;;;1.60;1.47;;;16.50;98.00;;;;;;5093272;28;20521;-73
2021/08/06 01:22:34;;;;;;;1.20;1.00;;;16.40;98.00;;;;;;5075643;28;20464;-73
2021/08/06 01:25:06;;;;;;;1.20;1.10;;;16.30;98.00;;;;;;5093243;28;20473;-73
2021/08/06 01:27:36;;;;;;;1.40;1.30;;;16.20;98.00;;;;;;5092704;28;20517;-73
2021/08/06 01:30:06;;;;;;;1.20;1.10;;;16.20;98.00;;;;;;5093035;28;20601;-73
2021/08/06 01:32:34;;;;;;;1.20;1.00;;;16.10;98.00;;;;;;5093255;28;20534;-73
2021/08/06 01:35:01;;;;;;;1.20;1.10;;;16.10;98.00;;;;;;5093422;28;20532;-73
2021/08/06 01:37:28;;;;;;;1.20;1.03;;;16.10;98.00;;;;;;5093776;28;20456;-73
2021/08/06 01:39:56;;;;;;;1.20;0.93;;;16.00;98.00;;;;;;5093137;28;20502;-73
2021/08/06 01:42:33;;;;;;;1.20;1.00;;;16.10;98.00;;;;;;5092938;28;20455;-73
2021/08/06 01:45:03;;;;;;;1.20;1.00;;;16.00;98.00;;;;;;5092905;28;20991;-73
2021/08/06 01:47:35;;;;;;;1.30;1.13;;;16.00;98.00;;;;;;5092846;28;20508;-73
2021/08/06 01:50:06;;;;;;;1.20;1.20;;;16.00;98.00;;;;;;5092681;28;20464;-73
2021/08/06 01:52:39;;;;;;;1.50;1.10;;;16.00;98.00;;;;;;5092775;28;20444;-73
2021/08/06 01:55:08;;;;;;;1.20;1.00;;;15.90;98.00;;;;;;5092576;28;20535;-73
2021/08/06 01:57:37;;;;;;;1.20;1.07;;;16.00;98.00;;;;;;5092660;28;20479;-73
2021/08/06 02:00:07;;;;;;;1.20;1.00;;;16.10;98.00;;;;;;5092613;28;20505;-73
2021/08/06 02:02:37;;;;;;;1.20;0.90;;;16.10;98.00;;;;;;5092770;28;20508;-73
2021/08/06 02:05:06;;;;;;;2.07;1.43;;;16.30;98.00;;;;;;5092488;28;20487;-73
2021/08/06 02:07:34;;;;;;;1.20;1.10;;;16.20;98.00;;;;;;5092520;28;20460;-73
2021/08/06 02:10:02;;;;;;;1.20;1.10;;;16.20;98.00;;;;;;5092409;28;20976;-73
2021/08/06 02:12:29;;;;;;;1.20;1.10;;;16.20;98.00;;;;;;5092589;28;20464;-73
2021/08/06 02:14:56;;;;;;;1.20;1.00;;;16.30;98.00;;;;;;5092441;28;20480;-73
2021/08/06 02:17:32;;;;;;;1.50;1.13;;;16.20;98.00;;;;;;5092223;28;20957;-73
2021/08/06 02:20:00;;;;;;;1.20;1.10;;;16.20;98.00;;;;;;5092375;28;20520;-73
2021/08/06 02:22:30;;;;;;;1.20;1.00;;;16.10;98.00;;;;;;5074780;28;20505;-73
2021/08/06 02:24:57;;;;;;;1.20;1.00;;;16.10;98.00;;;;;;5092628;28;20448;-73
2021/08/06 02:27:26;;;;;;;1.20;1.00;;;16.20;98.00;;;;;;5092324;28;21014;-73
2021/08/06 02:29:57;;;;;;;1.20;1.10;;;16.20;98.00;;;;;;5092166;28;20496;-73
2021/08/06 02:32:24;;;;;;;1.60;1.30;;;16.30;98.00;;;;;;5074509;28;20915;-73
2021/08/06 02:34:56;;;;;;;1.47;1.07;;;16.20;98.00;;;;;;5092432;28;21108;-73
2021/08/06 02:37:24;;;;;;;1.20;1.10;;;16.20;98.00;;;;;;5092353;28;20456;-73
2021/08/06 02:39:52;;;;;;;1.20;1.03;;;16.10;98.00;;;;;;5092933;28;20513;-73
2021/08/06 02:42:19;;;;;;;1.20;1.00;;;16.00;98.00;;;;;;5092949;28;20520;-73
2021/08/06 02:44:46;;;;;;;1.20;1.00;;;16.10;98.00;;;;;;5091843;28;20491;-73
2021/08/06 02:47:13;;;;;;;2.20;1.33;;;16.20;98.00;;;;;;5092009;28;20863;-72
2021/08/06 02:49:40;;;;;;;1.20;0.97;;;16.20;98.00;;;;;;5091656;28;20930;-73
2021/08/06 02:52:09;;;;;;;1.67;1.20;;;16.30;98.00;;;;;;5091694;28;20509;-73
2021/08/06 02:54:36;;;;;;;1.20;1.07;;;16.30;98.00;;;;;;5091604;28;20491;-73
2021/08/06 02:57:03;;;;;;;1.63;1.40;;;16.40;98.00;;;;;;5091714;28;20945;-72
2021/08/06 02:59:31;;;;;;;1.40;1.30;;;16.40;98.00;;;;;;5091665;28;20490;-73
2021/08/06 03:01:58;;;;;;;1.20;1.03;;;16.40;98.00;;;;;;5091531;28;20456;-73
2021/08/06 03:04:25;;;;;;;1.20;1.10;;;16.50;98.00;;;;;;5091660;28;20580;-73
2021/08/06 03:06:52;;;;;;;1.20;1.10;;;16.50;98.00;;;;;;5091469;28;20452;-73
2021/08/06 03:09:21;;;;;;;1.50;1.37;;;16.50;98.00;;;;;;5091389;28;20448;-73
2021/08/06 03:11:50;;;;;;;1.20;1.13;;;16.60;98.00;;;;;;5073588;28;20985;-73
2021/08/06 03:14:17;;;;;;;1.40;1.10;;;16.70;98.00;;;;;;5091467;28;20459;-73
2021/08/06 03:16:44;;;;;;;1.20;1.10;;;16.90;98.00;;;;;;5091262;28;20480;-73
2021/08/06 03:19:11;;;;;;;1.20;1.17;;;16.90;98.00;;;;;;5091135;28;20485;-73
2021/08/06 03:21:38;;;;;;;1.20;1.00;;;16.80;98.00;;;;;;5091294;28;20592;-73
2021/08/06 03:24:06;;;;;;;1.27;1.23;;;16.70;98.00;;;;;;5091060;28;21082;-73
2021/08/06 03:26:34;;;;;;;1.20;1.07;;;16.70;98.00;;;;;;5091102;28;20452;-73
2021/08/06 03:29:01;;;;;;;1.20;1.20;;;16.70;98.00;;;;;;5090958;28;21224;-73
2021/08/06 03:31:28;;;;;;;1.20;1.10;;;16.60;98.00;;;;;;5091088;28;20456;-73
2021/08/06 03:33:59;;;;;;;1.20;1.07;;;16.70;98.00;;;;;;5091191;28;20451;-73
2021/08/06 03:36:26;;;;;;;1.20;1.10;;;16.70;98.00;;;;;;5091074;28;20604;-73
2021/08/06 03:38:53;;;;;;;1.20;1.20;;;16.80;98.00;;;;;;5091064;28;20448;-73
2021/08/06 03:41:20;;;;;;;1.20;1.00;;;16.80;98.00;;;;;;5090830;28;20483;-73
2021/08/06 03:43:49;;;;;;;1.20;1.00;;;16.80;98.00;;;;;;5091007;28;20509;-73
2021/08/06 03:46:15;;;;;;;1.20;1.10;;;16.70;98.00;;;;;;5093125;28;20550;-73
2021/08/06 03:48:42;;;;;;;1.20;1.10;;;16.70;98.00;;;;;;5095351;28;20456;-73
2021/08/06 03:51:10;;;;;;;1.20;1.20;;;16.70;98.00;;;;;;5095288;28;20505;-73
2021/08/06 03:53:37;;;;;;;1.20;1.13;;;16.70;98.00;;;;;;5095247;28;20907;-73
2021/08/06 03:56:06;;;;;;;1.40;1.30;;;16.60;98.00;;;;;;5094901;28;20552;-73
2021/08/06 03:58:33;;;;;;;1.20;1.20;;;16.60;98.00;;;;;;5095214;28;20459;-73
2021/08/06 04:01:02;;;;;;;2.07;1.30;;;16.60;98.00;;;;;;5095023;28;20463;-73
2021/08/06 04:03:29;;;;;;;1.20;1.00;;;16.50;98.00;;;;;;5060484;28;20456;-73
2021/08/06 04:05:56;;;;;;;1.20;1.10;;;16.60;98.00;;;;;;5094886;28;20452;-73
2021/08/06 04:08:24;;;;;;;1.30;1.20;;;16.70;98.00;;;;;;5093186;28;20460;-73
2021/08/06 04:10:51;;;;;;;1.30;1.10;;;16.80;98.00;;;;;;5094878;28;20799;-73
2021/08/06 04:13:18;;;;;;;1.20;1.00;;;16.80;98.00;;;;;;5076970;28;20490;-73
2021/08/06 04:15:45;;;;;;;1.20;1.10;;;16.70;98.00;;;;;;5094553;28;21024;-73
2021/08/06 04:18:14;;;;;;;1.30;1.10;;;16.60;98.00;;;;;;5094555;28;20545;-73
2021/08/06 04:20:41;;;;;;;1.30;1.20;;;16.50;98.00;;;;;;5076355;28;20536;-73
2021/08/06 04:23:08;;;;;;;1.20;1.13;;;16.50;98.00;;;;;;5094383;28;20500;-73
2021/08/06 04:25:34;;;;;;;1.20;1.10;;;16.50;98.00;;;;;;5094474;28;20456;-73
2021/08/06 04:28:01;;;;;;;1.20;1.00;;;16.40;98.00;;;;;;5094497;28;20456;-73
2021/08/06 04:30:28;;;;;;;1.20;1.00;;;16.30;98.00;;;;;;5094118;28;20459;-73
2021/08/06 04:32:58;;;;;;;1.40;1.20;;;16.30;98.00;;;;;;5094750;28;20443;-73
2021/08/06 04:35:27;;;;;;;1.20;1.10;;;16.60;98.00;;;;;;5094284;28;20491;-73
2021/08/06 04:37:56;;;;;;;1.40;1.10;;;16.60;98.00;;;;;;5094266;28;20781;-73
2021/08/06 04:40:23;;;;;;;1.20;1.10;;;16.60;98.00;;;;;;5094086;28;20458;-73
2021/08/06 04:42:50;;;;;;;1.20;1.10;;;16.60;98.00;;;;;;5094179;28;20460;-73
2021/08/06 04:45:18;;;;;;;1.37;1.00;;;16.60;98.00;;;;;;5094059;28;20879;-73
2021/08/06 04:47:46;;;;;;;1.20;1.00;;;16.70;98.00;;;;;;5094011;28;20497;-73
2021/08/06 04:50:15;;;;;;;1.20;1.03;;;16.70;98.00;;;;;;5093945;28;21010;-73
2021/08/06 04:52:44;;;;;;;1.20;1.10;;;16.90;98.00;;;;;;5075947;28;20525;-73
2021/08/06 04:55:11;;;;;;;1.40;1.13;;;17.00;98.00;;;;;;5093895;28;20509;-73
2021/08/06 04:57:39;;;;;;;2.00;1.40;;;17.00;98.00;;;;;;5093169;28;20468;-73
2021/08/06 05:00:08;;;;;;;1.20;1.10;;;17.10;98.00;;;;;;5094399;28;20463;-73
2021/08/06 05:02:35;;;;;;;1.20;1.10;;;17.10;98.00;;;;;;5094235;28;20980;-73
2021/08/06 05:05:05;;;;;;;1.40;1.10;;;17.00;98.00;;;;;;5094100;28;21027;-73
2021/08/06 05:07:32;;;;;;;1.20;1.00;;;17.10;98.00;;;;;;5093288;28;20451;-73
2021/08/06 05:10:00;;;;;;;1.30;1.10;;;17.00;98.00;;;;;;5093705;28;20958;-73
2021/08/06 05:12:27;;;;;;;1.20;1.00;;;17.00;98.00;;;;;;5093766;28;20505;-73
2021/08/06 05:14:54;;;;;;;1.77;1.10;;;17.00;98.00;;;;;;5093636;28;20452;-73
2021/08/06 05:17:21;;;;;;;1.57;1.17;;;17.00;98.00;;;;;;5093486;28;20521;-73
2021/08/06 05:19:49;;;;;;;1.40;1.10;;;16.90;98.00;;;;;;5093450;28;20511;-73
2021/08/06 05:22:16;;;;;;;1.50;1.20;;;16.80;98.00;;;;;;5075617;28;20949;-73
2021/08/06 05:24:44;;;;;;;1.30;1.00;;;16.80;98.00;;;;;;5093248;28;20859;-73
2021/08/06 05:27:13;;;;;;;1.30;1.13;;;16.90;98.00;;;;;;5093178;28;20454;-72
2021/08/06 05:29:39;;;;;;;1.20;1.10;;;16.90;98.00;;;;;;5093295;28;20825;-73
2021/08/06 05:32:09;;;;;;;1.20;1.10;;;16.80;98.00;;;;;;5093117;28;20448;-73
2021/08/06 05:34:36;;;;;;;1.20;1.00;;;16.80;98.00;;;;;;5092800;28;20547;-73
2021/08/06 05:37:03;;;;;;;1.70;1.23;;;16.90;98.00;;;;;;5093042;28;20480;-73
2021/08/06 05:39:30;;;;;;;2.33;1.20;;;16.80;98.00;;;;;;5092846;28;20452;-73
2021/08/06 05:41:57;;;;;;;1.33;0.97;;;16.80;98.00;;;;;;5093214;28;20456;-73
2021/08/06 05:44:26;;;;;;;1.30;1.10;;;16.80;98.00;;;;;;5092935;28;20456;-72
2021/08/06 05:46:53;;;;;;;1.50;1.20;;;16.90;98.00;;;;;;5092931;28;20483;-73
2021/08/06 05:49:20;;;;;;;1.20;1.00;;;16.80;98.00;;;;;;5093173;28;20520;-73
2021/08/06 05:51:47;;;;;;;1.30;1.07;;;16.90;98.00;;;;;;5092931;28;20462;-73
2021/08/06 05:54:14;;;;;;;1.20;1.00;;;16.80;98.00;;;;;;5092804;28;20456;-73
2021/08/06 05:56:41;;;;;;;1.30;1.30;;;16.80;98.00;;;;;;5074614;28;20480;-73
2021/08/06 05:59:09;;;;;;;1.37;1.20;;;16.90;98.00;;;;;;5092494;28;20783;-73
2021/08/06 06:01:38;;;;;;;1.20;1.00;;;17.10;98.00;;;;;;5092828;28;20476;-73
2021/08/06 06:04:05;;;;;;;1.40;1.17;;;17.30;98.00;;;;;;5092444;28;20864;-73
2021/08/06 06:06:33;;;;;;;1.40;1.10;;;17.30;98.00;;;;;;5092488;28;20902;-73
2021/08/06 06:09:00;;;;;;;1.20;1.00;;;17.10;98.00;;;;;;5091635;28;20460;-73
2021/08/06 06:11:27;;;;;;;1.30;1.10;;;17.10;98.00;;;;;;5092227;28;20541;-72
2021/08/06 06:13:56;;;;;;;1.17;1.10;;;17.00;98.00;;;;;;5092432;28;20467;-73
2021/08/06 06:16:23;;;;;;;1.50;1.10;;;16.90;98.00;;;;;;5092300;28;20875;-73
2021/08/06 06:18:52;;;;;;;1.20;1.07;;;17.00;98.00;;;;;;5092280;28;20995;-72
2021/08/06 06:21:19;;;;;;;1.40;1.30;;;17.00;98.00;;;;;;5092383;28;20498;-72
2021/08/06 06:23:47;;;;;;;1.30;1.00;;;17.10;98.00;;;;;;5074558;28;20930;-72
2021/08/06 06:26:23;;;;;;;1.60;1.10;;;17.20;98.00;;;;;;5092287;28;20472;-72
2021/08/06 06:28:50;;;;;;;1.87;1.40;;;17.30;98.00;;;;;;5092366;28;20815;-73
2021/08/06 06:31:20;;;;;;;1.20;0.97;;;17.40;98.00;;;;;;5092170;28;20486;-72
2021/08/06 06:33:47;;;;;;;1.20;1.10;;;17.50;98.00;;;;;;5092195;28;20460;-72
2021/08/06 06:36:15;;;;;;;1.23;1.13;;;17.70;98.00;;;;;;5091991;28;20511;-73
2021/08/06 06:38:42;;;;;;;1.20;1.13;;;17.80;98.00;;;;;;5092015;28;21014;-73
2021/08/06 06:41:09;;;;;;;1.20;1.00;;;17.90;98.00;;;;;;5091822;28;20512;-73
2021/08/06 06:43:36;;;;;;;1.20;1.10;;;17.90;98.00;;;;;;5091901;28;20509;-74
2021/08/06 06:46:03;;;;;;;1.77;1.40;;;18.00;98.00;;;;;;5091879;28;20513;-72
2021/08/06 06:48:30;;;;;;;1.20;1.10;;;18.00;98.00;;;;;;5091616;28;20460;-73
2021/08/06 06:50:57;;;;;;;1.20;1.13;;;18.10;98.00;;;;;;5073775;28;20516;-72
2021/08/06 06:53:25;;;;;;;1.20;1.10;;;18.20;98.00;;;;;;5091668;28;20447;-73
2021/08/06 06:55:52;;;;;;;1.33;1.10;;;18.40;98.00;;;;;;5091475;28;20495;-73
2021/08/06 06:58:21;;;;;;;1.47;1.20;;;18.40;98.00;;;;;;5073679;28;20464;-73
2021/08/06 07:00:48;;;;;;;1.40;1.33;;;18.40;98.00;;;;;;5091402;28;20459;-73
2021/08/06 07:03:15;;;;;;;1.40;1.10;;;18.40;98.00;;;;;;5091518;28;20452;-73
2021/08/06 07:05:43;;;;;;;1.30;1.17;;;18.50;98.00;;;;;;5091459;28;20505;-72
2021/08/06 07:08:10;;;;;;;1.20;1.07;;;18.60;98.00;;;;;;5091526;28;21027;-73
2021/08/06 07:10:38;;;;;;;1.20;1.10;;;18.70;98.00;;;;;;5091352;28;20516;-72
2021/08/06 07:13:06;;;;;;;1.20;1.10;;;18.80;98.00;;;;;;5091197;28;20547;-72
2021/08/06 07:15:33;;;;;;;1.23;1.17;;;18.80;98.00;;;;;;5091306;28;20460;-73
2021/08/06 07:18:00;;;;;;;1.20;1.20;;;18.60;98.00;;;;;;5073492;28;20580;-72
2021/08/06 07:20:28;;;;;;;2.50;1.40;;;18.50;98.00;;;;;;5090743;28;20513;-72
2021/08/06 07:22:56;;;;;;;1.73;1.20;;;18.60;98.00;;;;;;5091276;28;20517;-73
2021/08/06 07:25:23;;;;;;;1.20;1.10;;;18.80;98.00;;;;;;5091278;28;21021;-73
2021/08/06 07:27:54;;;;;;;1.20;1.20;;;18.90;98.00;;;;;;5090906;28;21039;-72
2021/08/06 07:30:21;;;;;;;1.40;1.20;;;19.00;98.00;;;;;;5070227;28;20543;-74
2021/08/06 07:32:49;;;;;;;1.23;1.20;;;19.10;98.00;;;;;;5069580;28;20883;-73
2021/08/06 07:35:18;;;;;;;1.40;1.10;;;19.20;98.00;;;;;;5078714;28;20911;-73
2021/08/06 07:37:46;;;;;;;1.20;1.20;;;19.30;98.00;;;;;;5069886;28;20489;-73
2021/08/06 07:40:15;;;;;;;1.30;1.10;;;19.30;98.00;;;;;;5059465;28;20558;-74
2021/08/06 07:42:43;;;;;;;1.20;1.03;;;19.20;98.00;;;;;;5053809;28;20455;-72
2021/08/06 07:45:12;;;;;;;1.77;1.43;;;19.30;98.00;;;;;;5085335;28;20448;-72
2021/08/06 07:47:40;;;;;;;1.20;1.07;;;19.30;98.00;;;;;;5081710;28;20457;-75
2021/08/06 07:50:08;;;;;;;1.20;1.00;;;19.20;98.00;;;;;;5067416;28;20503;-73
2021/08/06 07:52:35;;;;;;;1.20;1.20;;;19.10;98.00;;;;;;5068838;28;20880;-73
2021/08/06 07:55:02;;;;;;;1.40;1.10;;;19.20;98.00;;;;;;5074515;28;20456;-72
2021/08/06 07:57:29;;;;;;;1.40;1.10;;;19.30;98.00;;;;;;5073248;28;21079;-72
2021/08/06 07:59:56;;;;;;;1.20;1.03;;;19.50;98.00;;;;;;5081499;28;20540;-70
2021/08/06 08:02:25;;;;;;;1.20;1.00;;;19.60;98.00;;;;;;5086637;28;20502;-71
2021/08/06 08:04:56;;;;;;;1.30;1.10;;;19.50;98.00;;;;;;5084620;28;20938;-71
2021/08/06 08:07:23;;;;;;;1.20;1.10;;;19.40;98.00;;;;;;5071926;28;20456;-71
2021/08/06 08:09:50;;;;;;;1.23;1.13;;;19.50;98.00;;;;;;5050574;28;20445;-71
2021/08/06 08:12:17;;;;;;;1.30;1.30;;;19.80;98.00;;;;;;5082451;28;20483;-72
2021/08/06 08:14:47;;;;;;;1.20;1.07;;;19.80;98.00;;;;;;5085421;28;20456;-70
2021/08/06 08:17:16;;;;;;;1.20;1.10;;;20.00;98.00;;;;;;5073384;28;20969;-72
2021/08/06 08:19:45;;;;;;;1.30;1.20;;;20.10;98.00;;;;;;5059876;28;20959;-71
2021/08/06 08:22:13;;;;;;;2.23;1.20;;;19.90;98.00;;;;;;5069453;28;20453;-72
2021/08/06 08:24:47;;;;;;;1.30;1.10;;;19.90;98.00;;;;;;5079204;28;20456;-72
2021/08/06 08:27:14;;;;;;;1.20;1.13;;;19.80;98.00;;;;;;5070498;28;20453;-71
2021/08/06 08:29:41;;;;;;;1.20;1.10;;;19.90;98.00;;;;;;5054665;28;20463;-72
2021/08/06 08:32:08;;;;;;;1.40;1.30;;;19.70;98.00;;;;;;5085659;28;20531;-72
2021/08/06 08:34:35;;;;;;;2.90;1.30;;;19.70;98.00;;;;;;5058301;28;20448;-72
2021/08/06 08:37:04;;;;;;;1.20;1.10;;;19.30;98.00;;;;;;5054772;28;20913;-73
2021/08/06 08:39:31;;;;;;;1.47;1.27;;;19.30;98.00;;;;;;5063644;28;20538;-75
2021/08/06 08:42:00;;;;;;;1.20;1.10;;;19.10;98.00;;;;;;5080736;28;20877;-75
2021/08/06 08:44:31;;;;;;;1.20;1.10;;;19.00;98.00;;;;;;5077178;28;20459;-74
2021/08/06 08:46:59;;;;;;;1.20;1.00;;;18.70;98.00;;;;;;5062768;28;20860;-73
2021/08/06 08:49:31;;;;;;;1.20;1.00;;;18.40;98.00;;;;;;5074569;28;20539;-73
2021/08/06 08:51:58;;;;;;;1.20;1.07;;;18.40;98.00;;;;;;5085764;28;20628;-72
2021/08/06 08:54:27;;;;;;;1.20;1.10;;;18.60;98.00;;;;;;5066730;28;20456;-74
2021/08/06 08:56:54;;;;;;;1.83;1.33;;;19.00;98.00;;;;;;5081487;28;20485;-74
2021/08/06 08:59:22;;;;;;;1.20;1.00;;;19.30;98.00;;;;;;5077362;28;20870;-72
2021/08/06 09:01:49;;;;;;;1.20;1.10;;;19.50;98.00;;;;;;5084228;28;20476;-72
2021/08/06 09:04:21;;;;;;;1.20;1.10;;;19.70;98.00;;;;;;5066772;28;21020;-72
2021/08/06 09:06:49;;;;;;;1.60;1.10;;;19.90;98.00;;;;;;5067763;28;20457;-71
2021/08/06 09:09:20;;;;;;;1.20;1.10;;;20.10;98.00;;;;;;5081754;28;20796;-71
2021/08/06 09:11:49;;;;;;;1.20;1.10;;;20.00;98.00;;;;;;5068987;28;20481;-71
2021/08/06 09:14:20;;;;;;;1.20;1.10;;;19.90;98.00;;;;;;5069770;28;20514;-71
2021/08/06 09:16:58;;;;;;;1.30;1.20;;;19.80;98.00;;;;;;5086099;28;20544;-71
2021/08/06 09:19:25;;;;;;;1.20;1.10;;;19.90;98.00;;;;;;5088889;28;20883;-71
2021/08/06 09:21:52;;;;;;;1.20;1.03;;;20.00;98.00;;;;;;5072466;28;20489;-71
2021/08/06 09:24:19;;;;;;;1.20;1.10;;;20.00;98.00;;;;;;5072730;28;20464;-71
2021/08/06 09:26:48;;;;;;;1.30;1.10;;;20.10;98.00;;;;;;5087087;28;20455;-71
2021/08/06 09:29:18;;;;;;;2.00;1.50;;;20.10;98.00;;;;;;5077203;28;20497;-71
2021/08/06 09:31:56;;;;;;;1.30;1.20;;;19.90;98.00;;;;;;5084661;28;20851;-72
2021/08/06 09:34:25;;;;;;;1.20;1.20;;;19.80;98.00;;;;;;5080039;28;20544;-72
2021/08/06 09:37:07;;;;;;;1.20;1.10;;;19.70;98.00;;;;;;5088507;28;20475;-71
2021/08/06 09:39:37;;;;;;;1.20;1.10;;;19.50;98.00;;;;;;5073651;28;20548;-71
2021/08/06 09:42:14;;;;;;;1.20;1.10;;;19.50;98.00;;;;;;5072106;28;20488;-72
2021/08/06 09:44:41;;;;;;;1.20;1.10;;;19.40;98.00;;;;;;5069195;28;20464;-72
2021/08/06 09:47:20;;;;;;;1.30;1.10;;;19.40;98.00;;;;;;5072599;28;20448;-72
2021/08/06 09:49:49;;;;;;;1.20;1.10;;;19.50;98.00;;;;;;5079719;28;20467;-72
2021/08/06 09:52:16;;;;;;;1.20;1.10;;;19.60;98.00;;;;;;5085331;28;20460;-73
2021/08/06 09:54:49;;;;;;;1.20;1.10;;;19.60;98.00;;;;;;5082255;28;20478;-73
2021/08/06 09:57:18;;;;;;;1.20;1.10;;;19.60;98.00;;;;;;5080677;28;20546;-73
2021/08/06 09:59:52;;;;;;;1.20;1.10;;;19.60;98.00;;;;;;5075678;28;20456;-72
2021/08/06 10:02:24;;;;;;;1.20;1.03;;;19.90;98.00;;;;;;5078875;28;20535;-73
2021/08/06 10:05:04;;;;;;;1.30;1.13;;;20.20;98.00;;;;;;5083150;28;20461;-73
2021/08/06 10:07:34;;;;;;;1.20;1.00;;;20.30;98.00;;;;;;5086159;28;20459;-72
2021/08/06 10:10:03;;;;;;;1.20;1.20;;;20.40;98.00;;;;;;5072054;28;20463;-72
2021/08/06 10:12:32;;;;;;;1.20;1.10;;;20.50;98.00;;;;;;5062421;28;20865;-72
2021/08/06 10:15:00;;;;;;;1.20;1.00;;;20.70;98.00;;;;;;5070411;28;20449;-72
2021/08/06 10:17:27;;;;;;;1.20;1.00;;;21.00;98.00;;;;;;5068044;28;20476;-72
2021/08/06 10:19:54;;;;;;;1.20;1.07;;;21.20;98.00;;;;;;5072429;28;20502;-73
2021/08/06 10:22:21;;;;;;;1.80;1.33;;;21.40;98.00;;;;;;5078552;28;20448;-73
2021/08/06 10:24:52;;;;;;;1.37;1.30;;;21.30;98.00;;;;;;5078234;28;20448;-73
2021/08/06 10:27:22;;;;;;;1.30;1.20;;;21.20;98.00;;;;;;5070911;28;20947;-73
2021/08/06 10:30:00;;;;;;;1.20;1.00;;;21.00;98.00;;;;;;5084619;28;20533;-73
2021/08/06 10:32:29;;;;;;;2.13;1.20;;;20.90;98.00;;;;;;5078736;28;20471;-74
2021/08/06 10:35:18;;;;;;;1.20;1.10;;;20.90;98.00;;;;;;5070978;28;20478;-73
2021/08/06 10:37:54;;;;;;;1.20;1.00;;;21.20;98.00;;;;;;5087308;28;20496;-73
2021/08/06 10:44:04;;;;;;;1.30;1.30;;;21.80;98.00;;;;;;5068218;28;20449;-74
2021/08/06 10:47:12;;;;;;;1.20;1.07;;;21.60;98.00;;;;;;5078781;28;20468;-74
2021/08/06 10:49:39;;;;;;;1.20;1.03;;;21.40;98.00;;;;;;5083286;28;20452;-73
2021/08/06 10:52:18;;;;;;;1.20;1.20;;;21.20;98.00;;;;;;5078654;28;20451;-73
2021/08/06 10:54:47;;;;;;;1.30;1.20;;;21.50;98.00;;;;;;5079508;28;20474;-75
2021/08/06 10:57:38;;;;;;;1.20;1.10;;;21.40;98.00;;;;;;5069806;28;20618;-74
2021/08/06 11:00:07;;;;;;;1.40;1.30;;;21.50;98.00;;;;;;5074394;28;20467;-72
2021/08/06 11:02:48;;;;;;;1.20;1.10;;;21.60;98.00;;;;;;5077535;28;20980;-73
2021/08/06 11:05:35;;;;;;;1.20;1.20;;;21.70;98.00;;;;;;5073651;28;20459;-72
2021/08/06 11:08:04;;;;;;;1.30;1.20;;;21.60;98.00;;;;;;5069174;28;20457;-73
2021/08/06 11:10:52;;;;;;;1.20;1.20;;;21.60;98.00;;;;;;5077294;28;20468;-72
2021/08/06 11:13:53;;;;;;;1.20;1.10;;;21.60;98.00;;;;;;5077721;28;20954;-73
2021/08/06 11:16:21;;;;;;;1.40;1.30;;;21.60;98.00;;;;;;5035959;28;20463;-74
2021/08/06 11:18:50;;;;;;;1.20;1.03;;;21.70;98.00;;;;;;5074256;28;20497;-73
2021/08/06 11:21:21;;;;;;;1.20;1.07;;;21.90;98.00;;;;;;5069971;28;20449;-73
2021/08/06 11:24:00;;;;;;;1.20;1.00;;;22.10;98.00;;;;;;5074517;28;20456;-73
2021/08/06 11:26:27;;;;;;;1.20;1.00;;;22.30;98.00;;;;;;5079980;28;20487;-73
2021/08/06 11:28:56;;;;;;;1.30;1.30;;;22.50;98.00;;;;;;5070090;28;20452;-75
2021/08/06 11:31:24;;;;;;;1.33;1.27;;;22.70;98.00;;;;;;5077492;28;20494;-73
2021/08/06 11:34:05;;;;;;;1.23;1.13;;;22.50;96.70;;;;;;5070004;28;20820;-72
2021/08/06 11:36:34;;;;;;;1.20;1.10;;;22.40;96.30;;;;;;5086292;28;20456;-72
2021/08/06 11:39:10;;;;;;;1.20;1.10;;;22.30;97.00;;;;;;5077371;28;20886;-72
2021/08/06 11:41:47;;;;;;;1.30;1.20;;;22.10;98.00;;;;;;5069895;28;20449;-72
2021/08/06 11:44:14;;;;;;;1.63;1.60;;;22.00;98.00;;;;;;5086216;28;20509;-73
2021/08/06 11:46:46;;;;;;;1.20;1.20;;;21.90;98.00;;;;;;5060413;28;20453;-74
2021/08/06 11:49:15;;;;;;;1.20;1.00;;;21.70;97.90;;;;;;5060847;28;20461;-75
2021/08/06 11:51:51;;;;;;;1.20;1.07;;;21.60;98.00;;;;;;5085877;28;20487;-72
2021/08/06 11:54:18;;;;;;;1.20;1.10;;;21.40;98.00;;;;;;5079368;28;20484;-72
2021/08/06 11:56:55;;;;;;;1.57;1.57;;;21.40;98.00;;;;;;5084566;28;20455;-76
2021/08/06 11:59:23;;;;;;;1.23;1.13;;;21.50;98.00;;;;;;5071861;28;20488;-75
2021/08/06 12:01:51;;;;;;;1.20;1.10;;;21.80;98.00;;;;;;5059741;28;20461;-73
2021/08/06 12:04:29;;;;;;;1.47;1.17;;;21.90;98.00;;;;;;5083725;28;20551;-74
2021/08/06 12:06:56;;;;;;;1.20;1.10;;;22.10;96.60;;;;;;5071208;28;20452;-73
2021/08/06 12:09:23;;;;;;;1.33;1.30;;;22.20;96.50;;;;;;5082262;28;20456;-71
2021/08/06 12:11:50;;;;;;;1.30;1.10;;;22.30;97.10;;;;;;5076305;28;21003;-72
2021/08/06 12:14:27;;;;;;;1.20;1.10;;;22.50;97.40;;;;;;5081177;28;20487;-72
2021/08/06 12:16:54;;;;;;;1.20;1.10;;;22.70;96.60;;;;;;5063425;28;20443;-74
2021/08/06 12:19:22;;;;;;;1.30;1.20;;;22.90;95.10;;;;;;5081750;28;20487;-75
2021/08/06 12:21:51;;;;;;;1.20;1.10;;;23.20;97.40;;;;;;5080359;28;20456;-73
2021/08/06 12:24:20;;;;;;;1.20;1.00;;;23.50;94.90;;;;;;5077623;28;20456;-74
2021/08/06 12:26:48;;;;;;;1.30;1.20;;;23.60;94.70;;;;;;5081471;28;20461;-73
2021/08/06 12:29:17;;;;;;;1.20;1.10;;;23.80;94.60;;;;;;5063845;28;20510;-74
2021/08/06 12:31:49;;;;;;;1.43;1.30;;;24.00;93.30;;;;;;5063226;28;20453;-72
2021/08/06 12:34:21;;;;;;;1.20;1.00;;;24.00;92.90;;;;;;5073025;28;20499;-74
2021/08/06 12:37:02;;;;;;;1.20;1.10;;;24.10;92.70;;;;;;5071950;28;20542;-73
2021/08/06 12:39:30;;;;;;;1.40;1.20;;;23.90;93.40;;;;;;5082326;28;20499;-73
2021/08/06 12:42:11;;;;;;;1.30;1.10;;;23.50;93.20;;;;;;5087975;28;20467;-73
2021/08/06 12:44:52;;;;;;;1.40;1.10;;;23.10;93.60;;;;;;5073038;28;20461;-73
2021/08/06 12:47:19;;;;;;;1.20;1.20;;;23.00;96.20;;;;;;5073227;28;20463;-72
2021/08/06 12:49:53;;;;;;;1.40;1.10;;;22.70;95.70;;;;;;5071618;28;20453;-73
2021/08/06 12:52:23;;;;;;;1.20;1.20;;;22.60;95.30;;;;;;5071872;28;20471;-70
2021/08/06 12:55:04;;;;;;;1.20;1.10;;;22.40;97.80;;;;;;5093984;28;20456;-73
2021/08/06 12:57:39;;;;;;;1.60;1.30;;;22.80;96.70;;;;;;5093897;28;20488;-73
2021/08/06 13:00:24;;;;;;;1.20;1.20;;;23.10;96.50;;;;;;5093822;28;20513;-74
2021/08/06 13:03:06;;;;;;;1.20;1.10;;;23.80;93.40;;;;;;5093784;28;20539;-74